createdAt,value
2023-03-03T00:01:38.547Z,1.79
2023-03-03T00:04:05.075Z,1.94
2023-03-03T00:06:31.750Z,2.06
2023-03-03T00:08:59.295Z,2.07
2023-03-03T00:11:25.844Z,2.04
2023-03-03T00:13:54.428Z,2.01
2023-03-03T00:16:37.384Z,1.93
2023-03-03T00:19:04.703Z,1.94
2023-03-03T00:21:33.867Z,1.93
2023-03-03T00:24:18.103Z,1.94
2023-03-03T00:26:50.144Z,1.91
2023-03-03T00:29:41.950Z,1.94
2023-03-03T00:32:26.801Z,1.90
2023-03-03T00:34:55.857Z,1.86
2023-03-03T00:37:34.870Z,1.78
2023-03-03T00:40:20.731Z,1.76
2023-03-03T00:42:51.372Z,1.69
2023-03-03T00:45:25.563Z,1.61
2023-03-03T00:47:52.064Z,1.66
2023-03-03T00:50:30.047Z,1.65
2023-03-03T00:53:05.631Z,1.63
2023-03-03T00:55:34.189Z,1.59
2023-03-03T00:58:00.886Z,1.48
2023-03-03T01:00:27.509Z,1.66
2023-03-03T01:02:54.106Z,1.66
2023-03-03T01:05:20.936Z,1.58
2023-03-03T01:07:47.537Z,1.67
2023-03-03T01:10:14.155Z,1.41
2023-03-03T01:12:40.769Z,1.45
2023-03-03T01:15:09.174Z,1.55
2023-03-03T01:17:36.299Z,1.41
2023-03-03T01:20:04.138Z,1.53
2023-03-03T01:22:30.670Z,1.35
2023-03-03T01:24:58.636Z,1.43
2023-03-03T01:27:27.855Z,1.52
2023-03-03T01:29:54.631Z,1.54
2023-03-03T01:32:21.376Z,1.44
2023-03-03T01:34:47.839Z,1.53
2023-03-03T01:37:14.412Z,1.51
2023-03-03T01:39:40.986Z,1.52
2023-03-03T01:42:08.205Z,1.36
2023-03-03T01:44:34.737Z,1.37
2023-03-03T01:47:17.994Z,1.33
2023-03-03T01:49:59.005Z,1.10
2023-03-03T01:52:33.186Z,1.24
2023-03-03T01:55:03.764Z,1.21
2023-03-03T01:57:33.755Z,1.21
2023-03-03T02:00:00.851Z,1.23
2023-03-03T02:02:28.161Z,0.97
2023-03-03T02:04:55.016Z,1.13
2023-03-03T02:07:25.571Z,1.06
2023-03-03T02:09:52.078Z,0.99
2023-03-03T02:12:20.909Z,0.88
2023-03-03T02:14:47.326Z,0.75
2023-03-03T02:17:14.006Z,0.80
2023-03-03T02:19:55.355Z,0.91
2023-03-03T02:22:27.246Z,0.91
2023-03-03T02:24:59.182Z,0.83
2023-03-03T02:27:27.230Z,0.90
2023-03-03T02:29:53.841Z,0.78
2023-03-03T02:32:20.387Z,0.83
2023-03-03T02:34:48.552Z,0.85
2023-03-03T02:37:15.260Z,0.90
2023-03-03T02:39:41.745Z,0.81
2023-03-03T02:42:17.276Z,0.83
2023-03-03T02:44:44.067Z,0.77
2023-03-03T02:47:10.721Z,0.73
2023-03-03T02:49:37.719Z,0.74
2023-03-03T02:52:07.693Z,0.73
2023-03-03T02:54:34.245Z,0.76
2023-03-03T02:57:01.574Z,0.69
2023-03-03T02:59:28.570Z,0.75
2023-03-03T03:01:55.140Z,0.62
2023-03-03T03:04:23.960Z,0.71
2023-03-03T03:06:51.054Z,0.64
2023-03-03T03:09:19.232Z,0.56
2023-03-03T03:11:46.117Z,0.67
2023-03-03T03:14:13.536Z,0.58
2023-03-03T03:16:40.454Z,0.51
2023-03-03T03:19:07.805Z,0.48
2023-03-03T03:21:34.733Z,0.26
2023-03-03T03:24:01.416Z,0.40
2023-03-03T03:26:28.032Z,0.22
2023-03-03T03:28:54.708Z,0.28
2023-03-03T03:31:21.946Z,0.22
2023-03-03T03:33:49.051Z,0.19
2023-03-03T03:36:15.884Z,0.22
2023-03-03T03:38:42.394Z,0.24
2023-03-03T03:41:09.135Z,0.23
2023-03-03T03:43:35.840Z,0.14
2023-03-03T03:46:02.644Z,0.26
2023-03-03T03:48:29.272Z,0.18
2023-03-03T03:50:55.783Z,0.11
2023-03-03T03:53:22.469Z,0.22
2023-03-03T03:55:49.185Z,0.23
2023-03-03T03:58:17.394Z,0.22
2023-03-03T04:00:45.008Z,0.08
2023-03-03T04:03:11.926Z,0.14
2023-03-03T04:05:38.704Z,0.29
2023-03-03T04:08:05.542Z,0.14
2023-03-03T04:10:32.266Z,0.36
2023-03-03T04:12:58.880Z,0.40
2023-03-03T04:15:25.559Z,0.37
2023-03-03T04:17:52.109Z,0.13
2023-03-03T04:20:18.775Z,0.15
2023-03-03T04:22:45.477Z,0.06
2023-03-03T04:25:17.056Z,0.16
2023-03-03T04:27:44.320Z,0.09
2023-03-03T04:30:11.710Z,0.03
2023-03-03T04:32:38.311Z,0.13
2023-03-03T04:35:08.477Z,-0.01
2023-03-03T04:37:36.499Z,0.13
2023-03-03T04:40:05.525Z,0.13
2023-03-03T04:42:32.031Z,0.03
2023-03-03T04:44:58.650Z,0.11
2023-03-03T04:47:25.365Z,0.15
2023-03-03T04:49:52.071Z,0.13
2023-03-03T04:52:18.614Z,0.08
2023-03-03T04:54:45.246Z,0.13
2023-03-03T04:57:11.854Z,-0.02
2023-03-03T04:59:38.384Z,0.11
2023-03-03T05:02:05.429Z,0.05
2023-03-03T05:04:32.514Z,-0.06
2023-03-03T05:06:59.086Z,-0.18
2023-03-03T05:09:25.602Z,-0.04
2023-03-03T05:11:52.601Z,-0.09
2023-03-03T05:14:19.206Z,-0.01
2023-03-03T05:16:45.846Z,0.03
2023-03-03T05:19:12.685Z,0.03
2023-03-03T05:21:42.343Z,0.05
2023-03-03T05:24:10.321Z,-0.01
2023-03-03T05:26:37.125Z,-0.06
2023-03-03T05:29:04.114Z,-0.07
2023-03-03T05:31:32.128Z,-0.33
2023-03-03T05:34:01.547Z,-0.16
2023-03-03T05:36:28.403Z,-0.13
2023-03-03T05:38:55.104Z,-0.28
2023-03-03T05:41:21.941Z,-0.18
2023-03-03T05:43:50.779Z,-0.18
2023-03-03T05:46:18.668Z,-0.13
2023-03-03T05:48:45.364Z,-0.31
2023-03-03T05:51:12.305Z,-0.34
2023-03-03T05:53:38.903Z,-0.37
2023-03-03T05:56:05.622Z,-0.30
2023-03-03T05:58:32.167Z,-0.47
2023-03-03T06:00:58.776Z,-0.31
2023-03-03T06:03:25.325Z,-0.22
2023-03-03T06:05:51.883Z,-0.14
2023-03-03T06:08:18.546Z,-0.12
2023-03-03T06:10:45.129Z,-0.09
2023-03-03T06:13:11.609Z,-0.09
2023-03-03T06:15:38.191Z,-0.05
2023-03-03T06:18:05.013Z,0.00
2023-03-03T06:20:32.015Z,0.06
2023-03-03T06:22:58.967Z,0.05
2023-03-03T06:25:25.440Z,0.07
2023-03-03T06:27:52.432Z,0.10
2023-03-03T06:30:19.136Z,0.10
2023-03-03T06:32:46.014Z,0.13
2023-03-03T06:35:12.744Z,0.10
2023-03-03T06:37:39.235Z,0.17
2023-03-03T06:40:06.491Z,0.13
2023-03-03T06:42:33.068Z,0.03
2023-03-03T06:44:59.621Z,0.17
2023-03-03T06:47:26.090Z,0.16
2023-03-03T06:49:52.665Z,0.19
2023-03-03T06:52:23.518Z,0.18
2023-03-03T06:54:51.627Z,0.00
2023-03-03T06:57:25.767Z,0.15
2023-03-03T06:59:54.929Z,0.18
2023-03-03T07:02:22.495Z,0.10
2023-03-03T07:04:49.455Z,-0.07
2023-03-03T07:07:20.712Z,-0.07
2023-03-03T07:09:49.643Z,-0.30
2023-03-03T07:12:22.607Z,-0.16
2023-03-03T07:15:02.212Z,-0.18
2023-03-03T07:17:30.372Z,-0.20
2023-03-03T07:19:56.919Z,-0.24
2023-03-03T07:22:25.920Z,-0.25
2023-03-03T07:24:54.871Z,-0.28
2023-03-03T07:27:29.671Z,-0.27
2023-03-03T07:30:13.052Z,-0.32
2023-03-03T07:32:42.562Z,-0.23
2023-03-03T07:35:36.913Z,-0.29
2023-03-03T07:38:04.198Z,-0.48
2023-03-03T07:40:33.761Z,-0.21
2023-03-03T07:43:01.101Z,-0.23
2023-03-03T07:45:36.952Z,-0.12
2023-03-03T07:48:15.333Z,-0.04
2023-03-03T07:50:41.844Z,-0.04
2023-03-03T07:53:15.370Z,0.00
2023-03-03T07:55:42.035Z,-0.10
2023-03-03T07:58:16.590Z,0.08
2023-03-03T08:00:43.029Z,0.13
2023-03-03T08:03:18.523Z,0.15
2023-03-03T08:05:47.322Z,0.20
2023-03-03T08:08:31.261Z,0.19
2023-03-03T08:10:59.376Z,0.25
2023-03-03T08:13:35.006Z,0.23
2023-03-03T08:16:04.751Z,0.21
2023-03-03T08:18:50.039Z,0.23
2023-03-03T08:21:18.963Z,0.25
2023-03-03T08:23:45.713Z,0.19
2023-03-03T08:26:13.975Z,0.24
2023-03-03T08:28:40.768Z,0.25
2023-03-03T08:31:18.345Z,0.27
2023-03-03T08:33:49.037Z,0.33
2023-03-03T08:36:15.631Z,0.28
2023-03-03T08:38:42.370Z,0.15
2023-03-03T08:41:09.152Z,0.06
2023-03-03T08:43:35.694Z,-0.10
2023-03-03T08:46:05.242Z,0.07
2023-03-03T08:48:32.447Z,0.08
2023-03-03T08:50:58.984Z,-0.05
2023-03-03T08:53:25.831Z,0.18
2023-03-03T08:55:52.325Z,0.13
2023-03-03T08:58:21.196Z,0.21
2023-03-03T09:00:50.212Z,0.15
2023-03-03T09:03:17.621Z,0.10
2023-03-03T09:05:45.161Z,0.16
2023-03-03T09:08:11.866Z,0.16
2023-03-03T09:10:38.911Z,-0.01
2023-03-03T09:13:14.480Z,0.18
2023-03-03T09:15:41.195Z,0.26
2023-03-03T09:18:18.640Z,0.14
2023-03-03T09:20:48.149Z,0.32
2023-03-03T09:23:43.917Z,0.29
2023-03-03T09:26:30.351Z,0.34
2023-03-03T09:29:24.951Z,0.35
2023-03-03T09:31:56.774Z,0.21
2023-03-03T09:34:41.665Z,0.43
2023-03-03T09:37:24.198Z,0.57
2023-03-03T09:39:52.748Z,0.57
2023-03-03T09:42:35.763Z,0.60
2023-03-03T09:45:26.772Z,0.65
2023-03-03T09:48:04.539Z,0.74
2023-03-03T09:50:42.767Z,0.88
2023-03-03T09:53:35.520Z,0.93
2023-03-03T09:56:08.372Z,1.03
2023-03-03T09:58:56.617Z,1.08
2023-03-03T10:01:34.846Z,1.06
2023-03-03T10:04:16.815Z,1.23
2023-03-03T10:06:53.970Z,1.24
2023-03-03T10:09:35.451Z,1.16
2023-03-03T10:12:17.972Z,1.19
2023-03-03T10:14:59.519Z,1.14
2023-03-03T10:17:40.852Z,1.14
2023-03-03T10:20:21.799Z,1.17
2023-03-03T10:23:02.212Z,1.27
2023-03-03T10:25:31.777Z,1.35
2023-03-03T10:28:19.505Z,1.36
2023-03-03T10:31:10.742Z,1.31
2023-03-03T10:34:02.851Z,1.25
2023-03-03T10:36:50.642Z,1.42
2023-03-03T10:39:42.508Z,1.47
2023-03-03T10:42:25.267Z,1.65
2023-03-03T10:45:05.646Z,1.64
2023-03-03T10:47:41.482Z,1.78
2023-03-03T10:50:07.966Z,1.81
2023-03-03T10:52:34.531Z,1.83
2023-03-03T10:55:28.030Z,1.75
2023-03-03T10:58:30.167Z,1.70
2023-03-03T11:01:34.230Z,1.70
2023-03-03T11:04:16.898Z,1.59
2023-03-03T11:06:51.632Z,1.71
2023-03-03T11:09:31.942Z,1.81
2023-03-03T11:12:22.407Z,1.80
2023-03-03T11:14:58.285Z,1.84
2023-03-03T11:18:03.702Z,1.93
2023-03-03T11:20:48.222Z,1.92
2023-03-03T11:23:27.769Z,2.03
2023-03-03T11:26:07.458Z,2.12
2023-03-03T11:28:55.348Z,2.14
2023-03-03T11:31:40.017Z,2.06
2023-03-03T11:34:12.577Z,1.94
2023-03-03T11:37:04.433Z,1.89
2023-03-03T11:39:30.944Z,1.80
2023-03-03T11:41:58.527Z,1.75
2023-03-03T11:44:32.252Z,1.69
2023-03-03T11:47:19.659Z,1.58
2023-03-03T11:49:56.238Z,1.43
2023-03-03T11:52:43.497Z,1.27
2023-03-03T11:55:13.950Z,1.48
2023-03-03T11:57:52.331Z,1.60
2023-03-03T12:00:31.466Z,1.83
2023-03-03T12:03:16.669Z,1.88
2023-03-03T12:06:06.584Z,1.96
2023-03-03T12:09:04.079Z,2.28
2023-03-03T12:11:54.275Z,2.39
2023-03-03T12:14:20.852Z,2.54
2023-03-03T12:16:50.128Z,2.55
2023-03-03T12:19:31.301Z,2.44
2023-03-03T12:22:12.093Z,2.61
2023-03-03T12:25:11.220Z,2.66
2023-03-03T12:28:05.657Z,2.60
2023-03-03T12:31:18.749Z,2.78
2023-03-03T12:33:50.981Z,2.78
2023-03-03T12:36:23.440Z,2.82
2023-03-03T12:39:40.711Z,2.85
2023-03-03T12:42:20.638Z,2.96
2023-03-03T12:44:47.155Z,2.95
2023-03-03T12:47:25.283Z,2.92
2023-03-03T12:50:10.274Z,2.83
2023-03-03T12:52:58.347Z,2.85
2023-03-03T12:55:51.274Z,2.81
2023-03-03T12:58:23.641Z,2.90
2023-03-03T13:00:55.390Z,2.83
2023-03-03T13:03:31.922Z,2.77
2023-03-03T13:06:23.897Z,2.89
2023-03-03T13:09:09.035Z,2.93
2023-03-03T13:11:45.081Z,2.79
2023-03-03T13:14:20.765Z,2.87
2023-03-03T13:17:08.607Z,2.86
2023-03-03T13:19:41.352Z,2.79
2023-03-03T13:22:17.854Z,2.86
2023-03-03T13:24:56.049Z,2.89
2023-03-03T13:27:26.161Z,2.77
2023-03-03T13:30:15.933Z,2.74
2023-03-03T13:33:08.546Z,2.74
2023-03-03T13:35:51.982Z,2.79
2023-03-03T13:38:42.419Z,2.89
2023-03-03T13:41:25.599Z,2.90
2023-03-03T13:44:01.355Z,2.80
2023-03-03T13:47:07.807Z,2.81
2023-03-03T13:49:41.127Z,2.84
2023-03-03T13:52:10.341Z,2.87
2023-03-03T13:54:51.979Z,2.99
2023-03-03T13:58:10.011Z,3.18
2023-03-03T14:01:08.955Z,3.32
2023-03-03T14:03:38.232Z,3.40
2023-03-03T14:06:07.792Z,3.39
2023-03-03T14:08:49.617Z,3.50
2023-03-03T14:11:48.314Z,3.44
2023-03-03T14:14:27.325Z,3.41
2023-03-03T14:17:29.286Z,3.34
2023-03-03T14:20:27.673Z,3.39
2023-03-03T14:23:00.036Z,3.51
2023-03-03T14:25:26.659Z,3.41
2023-03-03T14:28:00.954Z,3.32
2023-03-03T14:30:30.462Z,3.17
2023-03-03T14:33:09.306Z,3.09
2023-03-03T14:35:41.560Z,3.12
2023-03-03T14:38:34.412Z,3.20
2023-03-03T14:41:11.642Z,3.04
2023-03-03T14:43:46.931Z,3.10
2023-03-03T14:46:22.850Z,3.12
2023-03-03T14:48:54.718Z,3.13
2023-03-03T14:51:38.983Z,3.21
2023-03-03T14:54:09.335Z,3.26
2023-03-03T14:56:37.616Z,3.26
2023-03-03T14:59:20.804Z,3.23
2023-03-03T15:01:47.511Z,3.14
2023-03-03T15:04:14.051Z,3.06
2023-03-03T15:06:43.348Z,3.04
2023-03-03T15:09:32.638Z,2.90
2023-03-03T15:12:00.478Z,2.81
2023-03-03T15:14:38.693Z,2.69
2023-03-03T15:17:23.547Z,2.79
2023-03-03T15:20:02.268Z,2.72
2023-03-03T15:22:55.374Z,2.61
2023-03-03T15:25:42.835Z,2.47
2023-03-03T15:29:01.669Z,2.43
2023-03-03T15:31:30.845Z,2.53
2023-03-03T15:34:03.609Z,2.63
2023-03-03T15:36:46.827Z,2.74
2023-03-03T15:39:16.833Z,2.86
2023-03-03T15:41:56.404Z,2.94
2023-03-03T15:44:51.478Z,3.03
2023-03-03T15:47:39.216Z,3.08
2023-03-03T15:50:21.787Z,3.07
2023-03-03T15:53:08.477Z,2.95
2023-03-03T15:55:56.231Z,2.96
2023-03-03T15:58:44.016Z,2.87
2023-03-03T16:01:10.729Z,2.88
2023-03-03T16:03:40.938Z,2.87
2023-03-03T16:06:22.524Z,2.89
2023-03-03T16:09:10.382Z,2.93
2023-03-03T16:12:00.861Z,2.94
2023-03-03T16:14:48.922Z,2.84
2023-03-03T16:17:18.542Z,2.74
2023-03-03T16:20:16.213Z,2.75
2023-03-03T16:22:45.634Z,2.72
2023-03-03T16:25:15.858Z,2.68
2023-03-03T16:28:10.544Z,2.64
2023-03-03T16:30:51.704Z,2.59
2023-03-03T16:33:22.802Z,2.54
2023-03-03T16:36:12.439Z,2.47
2023-03-03T16:38:42.170Z,2.33
2023-03-03T16:41:15.925Z,2.17
2023-03-03T16:43:51.673Z,2.28
2023-03-03T16:46:19.137Z,2.24
2023-03-03T16:48:49.298Z,2.19
2023-03-03T16:51:46.110Z,2.15
2023-03-03T16:54:44.911Z,2.13
2023-03-03T16:57:39.110Z,2.06
2023-03-03T17:00:05.726Z,2.03
2023-03-03T17:02:44.276Z,2.06
2023-03-03T17:05:17.578Z,2.00
2023-03-03T17:07:54.116Z,1.80
2023-03-03T17:10:26.502Z,1.80
2023-03-03T17:12:58.761Z,1.88
2023-03-03T17:15:38.896Z,1.84
2023-03-03T17:18:14.544Z,1.69
2023-03-03T17:20:49.692Z,1.74
2023-03-03T17:24:00.941Z,1.75
2023-03-03T17:26:51.693Z,1.63
2023-03-03T17:30:04.079Z,1.67
2023-03-03T17:32:37.743Z,1.68
2023-03-03T17:35:14.542Z,1.72
2023-03-03T17:37:54.027Z,1.70
2023-03-03T17:40:41.578Z,1.69
2023-03-03T17:43:16.263Z,1.59
2023-03-03T17:45:45.255Z,1.64
2023-03-03T17:48:11.687Z,1.63
2023-03-03T17:51:08.817Z,1.63
2023-03-03T17:53:48.266Z,1.65
2023-03-03T17:56:21.669Z,1.72
2023-03-03T17:58:58.421Z,1.71
2023-03-03T18:02:00.540Z,1.73
2023-03-03T18:05:04.538Z,1.58
2023-03-03T18:07:40.740Z,1.68
2023-03-03T18:10:10.418Z,1.68
2023-03-03T18:12:44.957Z,1.56
2023-03-03T18:15:23.408Z,1.69
2023-03-03T18:18:04.093Z,1.66
2023-03-03T18:20:45.042Z,1.71
2023-03-03T18:23:35.336Z,1.69
2023-03-03T18:26:04.146Z,1.71
2023-03-03T18:28:47.822Z,1.67
2023-03-03T18:31:44.886Z,1.49
2023-03-03T18:34:20.564Z,1.64
2023-03-03T18:36:56.093Z,1.64
2023-03-03T18:40:13.471Z,1.59
2023-03-03T18:42:40.899Z,1.55
2023-03-03T18:45:28.280Z,1.55
2023-03-03T18:48:00.988Z,1.57
2023-03-03T18:50:33.785Z,1.54
2023-03-03T18:53:22.651Z,1.38
2023-03-03T18:55:51.740Z,1.55
2023-03-03T18:58:18.451Z,1.57
2023-03-03T19:00:59.800Z,1.55
2023-03-03T19:03:47.424Z,1.51
2023-03-03T19:06:52.714Z,1.51
2023-03-03T19:09:21.046Z,1.53
2023-03-03T19:11:56.873Z,1.58
2023-03-03T19:14:27.685Z,1.49
2023-03-03T19:16:55.904Z,1.43
2023-03-03T19:19:30.217Z,1.43
2023-03-03T19:22:25.927Z,1.46
2023-03-03T19:25:27.199Z,1.46
2023-03-03T19:28:14.999Z,1.49
2023-03-03T19:30:56.224Z,1.48
2023-03-03T19:33:42.883Z,1.46
2023-03-03T19:36:23.104Z,1.42
2023-03-03T19:38:52.463Z,1.39
2023-03-03T19:42:01.145Z,1.39
2023-03-03T19:45:09.505Z,1.34
2023-03-03T19:47:44.732Z,1.28
2023-03-03T19:50:30.135Z,1.30
2023-03-03T19:53:21.188Z,1.31
2023-03-03T19:55:59.822Z,1.33
2023-03-03T19:58:55.622Z,1.32
2023-03-03T20:01:53.421Z,1.31
2023-03-03T20:04:32.409Z,1.35
2023-03-03T20:07:10.595Z,1.27
2023-03-03T20:10:01.274Z,1.34
2023-03-03T20:12:39.196Z,1.33
2023-03-03T20:15:20.681Z,1.31
2023-03-03T20:17:58.562Z,1.32
2023-03-03T20:20:37.233Z,1.33
2023-03-03T20:23:07.753Z,1.37
2023-03-03T20:25:40.112Z,1.24
2023-03-03T20:28:30.104Z,1.38
2023-03-03T20:31:05.550Z,1.40
2023-03-03T20:33:50.427Z,1.41
2023-03-03T20:36:27.750Z,1.36
2023-03-03T20:39:06.902Z,1.37
2023-03-03T20:41:55.930Z,1.39
2023-03-03T20:44:48.888Z,1.29
2023-03-03T20:47:15.372Z,1.35
2023-03-03T20:50:03.174Z,1.37
2023-03-03T20:53:15.912Z,1.35
2023-03-03T20:56:00.048Z,1.35
2023-03-03T20:58:48.037Z,1.33
2023-03-03T21:01:16.951Z,1.33
2023-03-03T21:03:47.886Z,1.22
2023-03-03T21:06:18.022Z,1.29
2023-03-03T21:08:54.781Z,1.29
2023-03-03T21:11:30.318Z,1.29
2023-03-03T21:13:58.059Z,1.21
2023-03-03T21:16:24.939Z,1.24
2023-03-03T21:19:00.419Z,1.25
2023-03-03T21:21:30.258Z,1.22
2023-03-03T21:23:56.993Z,1.20
2023-03-03T21:26:51.885Z,1.17
2023-03-03T21:29:29.648Z,1.19
2023-03-03T21:32:04.898Z,1.09
2023-03-03T21:34:39.153Z,1.15
2023-03-03T21:37:11.205Z,1.15
2023-03-03T21:39:43.595Z,1.08
2023-03-03T21:42:16.111Z,1.13
2023-03-03T21:44:50.028Z,1.03
2023-03-03T21:47:21.404Z,1.04
2023-03-03T21:49:49.792Z,0.94
2023-03-03T21:52:18.522Z,1.09
2023-03-03T21:54:46.908Z,1.08
2023-03-03T21:57:14.218Z,1.09
2023-03-03T21:59:41.251Z,1.03
2023-03-03T22:02:08.647Z,1.04
2023-03-03T22:04:35.262Z,1.15
2023-03-03T22:07:01.879Z,1.12
2023-03-03T22:09:28.406Z,1.11
2023-03-03T22:11:55.140Z,1.13
2023-03-03T22:14:23.980Z,1.15
2023-03-03T22:16:50.612Z,1.16
2023-03-03T22:19:17.133Z,0.92
2023-03-03T22:21:43.951Z,1.06
2023-03-03T22:24:10.492Z,1.13
2023-03-03T22:26:39.505Z,1.00
2023-03-03T22:29:06.637Z,0.97
2023-03-03T22:31:33.569Z,0.95
2023-03-03T22:34:00.321Z,0.95
2023-03-03T22:36:26.958Z,0.98
2023-03-03T22:38:53.595Z,0.99
2023-03-03T22:41:20.275Z,1.01
2023-03-03T22:43:48.021Z,1.03
2023-03-03T22:46:14.578Z,0.86
2023-03-03T22:48:41.602Z,1.06
2023-03-03T22:51:08.005Z,1.08
2023-03-03T22:53:34.676Z,1.07
2023-03-03T22:56:01.236Z,1.12
2023-03-03T22:58:29.384Z,1.08
2023-03-03T23:00:56.039Z,0.98
2023-03-03T23:03:22.773Z,0.97
2023-03-03T23:05:51.661Z,1.06
2023-03-03T23:08:19.697Z,1.07
2023-03-03T23:10:46.563Z,0.88
2023-03-03T23:13:13.199Z,1.02
2023-03-03T23:15:40.114Z,0.91
2023-03-03T23:18:06.834Z,0.85
2023-03-03T23:20:33.480Z,1.00
2023-03-03T23:23:00.124Z,1.06
2023-03-03T23:25:28.588Z,1.05
2023-03-03T23:27:55.736Z,1.06
2023-03-03T23:30:23.339Z,1.06
2023-03-03T23:32:51.402Z,1.06
2023-03-03T23:35:18.135Z,0.94
2023-03-03T23:37:45.901Z,1.06
2023-03-03T23:40:13.453Z,1.00
2023-03-03T23:42:40.338Z,1.09
2023-03-03T23:45:07.672Z,0.98
2023-03-03T23:47:34.227Z,0.94
2023-03-03T23:50:00.837Z,1.12
2023-03-03T23:52:27.284Z,1.11
2023-03-03T23:54:54.046Z,0.99
2023-03-03T23:57:20.771Z,1.09
2023-03-03T23:59:47.458Z,1.04
